Time;durP1;ratioP1;P1;durP2;ratioP2;P2;SDS_P1;SDS_P2;PMS_P1;PMS_P2;Temp;Humidity;BMP_temperature;BMP_pressure;BME280_temperature;BME280_humidity;BME280_pressure;Samples;Min_cycle;Max_cycle;Signal;HPM_P1;HPM_P2
2021/05/27 00:00:13;;;;;;;4.20;2.63;;;11.40;99.90;;;;;;5007014;28;20050;-70
2021/05/27 00:02:40;;;;;;;6.28;3.28;;;11.30;99.90;;;;;;5005745;28;20123;-69
2021/05/27 00:05:08;;;;;;;9.30;2.97;;;11.30;99.90;;;;;;5006545;28;20513;-71
2021/05/27 00:07:35;;;;;;;7.60;2.95;;;11.30;99.90;;;;;;5011206;28;20069;-70
2021/05/27 00:10:04;;;;;;;4.47;2.72;;;11.30;99.90;;;;;;5007264;28;20060;-69
2021/05/27 00:12:31;;;;;;;3.40;2.72;;;11.20;99.90;;;;;;5009586;28;20118;-70
2021/05/27 00:14:58;;;;;;;6.93;2.80;;;11.20;99.90;;;;;;5008079;28;20493;-68
2021/05/27 00:17:25;;;;;;;5.90;3.10;;;11.30;99.90;;;;;;5009789;28;20130;-70
2021/05/27 00:19:52;;;;;;;4.13;2.20;;;11.20;99.90;;;;;;5006971;28;20136;-69
2021/05/27 00:22:19;;;;;;;7.00;2.63;;;11.20;99.90;;;;;;5009566;28;20042;-69
2021/05/27 00:24:46;;;;;;;6.97;3.78;;;11.10;99.90;;;;;;5006360;28;20077;-68
2021/05/27 00:27:13;;;;;;;4.78;2.50;;;11.10;99.90;;;;;;5007133;28;20057;-70
2021/05/27 00:29:40;;;;;;;5.82;3.47;;;11.10;99.90;;;;;;5010010;28;20080;-70
2021/05/27 00:32:07;;;;;;;6.93;3.08;;;11.10;99.90;;;;;;5008266;28;20493;-71
2021/05/27 00:34:34;;;;;;;5.30;3.38;;;11.10;99.90;;;;;;5001891;28;20136;-68
2021/05/27 00:37:01;;;;;;;5.50;2.63;;;11.00;99.90;;;;;;5012052;28;20104;-69
2021/05/27 00:39:28;;;;;;;6.05;2.80;;;11.00;99.90;;;;;;5010263;28;20129;-68
2021/05/27 00:41:57;;;;;;;5.47;2.85;;;11.00;99.90;;;;;;5008550;28;20137;-69
2021/05/27 00:44:29;;;;;;;4.20;3.13;;;11.10;99.90;;;;;;5009719;28;20132;-70
2021/05/27 00:46:58;;;;;;;5.47;3.03;;;11.10;99.90;;;;;;5006629;28;20066;-69
2021/05/27 00:49:26;;;;;;;5.55;2.90;;;11.10;99.90;;;;;;5007010;28;20125;-67
2021/05/27 00:51:53;;;;;;;4.53;3.67;;;11.00;99.90;;;;;;5013042;28;20125;-69
2021/05/27 00:54:20;;;;;;;5.85;3.58;;;11.20;99.90;;;;;;5006986;28;20088;-70
2021/05/27 00:56:50;;;;;;;11.00;3.47;;;11.30;99.90;;;;;;5005331;28;20492;-70
2021/05/27 00:59:17;;;;;;;6.27;4.00;;;11.30;99.90;;;;;;5008970;28;20055;-70
2021/05/27 01:01:45;;;;;;;5.65;4.22;;;11.30;99.90;;;;;;5009194;28;20100;-69
2021/05/27 01:04:12;;;;;;;9.63;5.13;;;11.30;99.90;;;;;;5006332;28;20475;-69
2021/05/27 01:06:38;;;;;;;7.47;5.65;;;11.20;99.90;;;;;;5007859;28;20493;-70
2021/05/27 01:09:05;;;;;;;10.23;5.13;;;11.20;99.90;;;;;;5006086;28;20058;-70
2021/05/27 01:11:33;;;;;;;6.40;3.85;;;11.10;99.90;;;;;;5006681;28;20493;-70
2021/05/27 01:17:04;;;;;;;3.80;2.80;;;11.10;99.90;;;;;;5009265;28;20139;-70
2021/05/27 01:19:31;;;;;;;5.43;2.67;;;10.90;99.90;;;;;;5005513;28;20073;-69
2021/05/27 01:21:59;;;;;;;6.47;2.60;;;10.90;99.90;;;;;;5006392;28;20079;-70
2021/05/27 01:24:26;;;;;;;5.50;2.50;;;10.80;99.90;;;;;;5006147;28;20149;-68
2021/05/27 01:26:53;;;;;;;4.35;2.58;;;10.70;99.90;;;;;;5009152;28;20053;-69
2021/05/27 01:29:20;;;;;;;6.40;2.78;;;10.80;99.90;;;;;;5006858;28;20078;-69
2021/05/27 01:31:47;;;;;;;3.95;2.50;;;10.80;99.90;;;;;;5004097;28;20121;-69
2021/05/27 01:34:14;;;;;;;4.25;2.50;;;10.70;99.90;;;;;;5008580;28;20054;-70
2021/05/27 01:36:47;;;;;;;3.00;2.30;;;10.70;99.90;;;;;;5007897;28;20069;-67
2021/05/27 01:39:14;;;;;;;7.55;2.80;;;10.60;99.90;;;;;;5006775;28;20050;-69
2021/05/27 01:41:41;;;;;;;4.63;2.60;;;10.70;99.90;;;;;;5007135;28;20335;-69
2021/05/27 01:44:08;;;;;;;6.53;2.47;;;10.70;99.90;;;;;;5007998;28;20449;-69
2021/05/27 01:46:35;;;;;;;5.57;2.30;;;10.70;99.90;;;;;;5008385;28;20077;-69
2021/05/27 01:49:02;;;;;;;6.28;2.45;;;11.00;99.90;;;;;;5005098;28;20081;-69
2021/05/27 01:51:29;;;;;;;4.47;2.63;;;10.90;99.90;;;;;;5009899;28;20100;-69
2021/05/27 01:53:55;;;;;;;2.45;1.98;;;10.80;99.90;;;;;;5004315;28;20154;-69
2021/05/27 01:56:22;;;;;;;5.32;2.38;;;10.90;99.90;;;;;;5006738;28;20092;-69
2021/05/27 01:58:49;;;;;;;4.20;2.53;;;10.80;99.90;;;;;;5002938;28;20045;-68
2021/05/27 02:01:16;;;;;;;5.18;2.25;;;10.50;99.90;;;;;;5007406;28;20078;-70
2021/05/27 02:03:43;;;;;;;3.72;2.03;;;10.40;99.90;;;;;;5008418;28;20045;-69
2021/05/27 02:06:10;;;;;;;6.07;2.35;;;10.40;99.90;;;;;;5008161;28;20050;-71
2021/05/27 02:08:37;;;;;;;2.78;1.92;;;10.40;99.90;;;;;;5000330;28;20104;-70
2021/05/27 02:11:03;;;;;;;2.85;2.15;;;10.30;99.90;;;;;;5006411;28;20057;-69
2021/05/27 02:13:30;;;;;;;2.45;2.00;;;10.30;99.90;;;;;;5005676;28;20497;-69
2021/05/27 02:15:57;;;;;;;2.97;2.08;;;10.50;99.90;;;;;;5003057;28;20050;-70
2021/05/27 02:18:24;;;;;;;3.47;2.33;;;10.30;99.90;;;;;;5019140;28;20057;-70
2021/05/27 02:20:51;;;;;;;4.05;2.42;;;10.30;99.90;;;;;;5013650;28;20073;-68
2021/05/27 02:23:18;;;;;;;4.35;2.50;;;10.30;99.90;;;;;;5042162;28;20239;-70
2021/05/27 02:25:45;;;;;;;4.63;2.22;;;10.30;99.90;;;;;;5011610;28;20041;-69
2021/05/27 02:28:11;;;;;;;3.38;2.33;;;10.60;99.90;;;;;;5005954;28;20068;-69
2021/05/27 02:30:38;;;;;;;5.05;2.30;;;10.60;99.90;;;;;;5010095;28;20052;-69
2021/05/27 02:33:05;;;;;;;3.35;2.60;;;10.50;99.90;;;;;;5011873;28;20061;-70
2021/05/27 02:35:32;;;;;;;6.32;2.05;;;10.40;99.90;;;;;;5010806;28;20054;-67
2021/05/27 02:37:59;;;;;;;6.05;2.20;;;10.50;99.90;;;;;;5009066;28;20533;-69
2021/05/27 02:40:28;;;;;;;3.25;2.17;;;10.20;99.90;;;;;;5011710;28;20141;-70
2021/05/27 02:42:55;;;;;;;3.13;2.08;;;10.50;99.90;;;;;;5010384;28;20458;-69
2021/05/27 02:45:21;;;;;;;4.95;2.30;;;10.50;99.90;;;;;;5009954;28;20082;-70
2021/05/27 02:47:48;;;;;;;3.83;2.42;;;10.50;99.90;;;;;;5012164;28;20073;-69
2021/05/27 02:50:15;;;;;;;4.38;2.42;;;10.40;99.90;;;;;;5008379;28;20461;-69
2021/05/27 02:52:42;;;;;;;6.88;2.67;;;10.30;99.90;;;;;;5011166;28;20058;-69
2021/05/27 02:55:10;;;;;;;3.17;2.35;;;10.20;99.90;;;;;;5007940;28;20157;-70
2021/05/27 02:57:37;;;;;;;6.00;2.40;;;10.10;99.90;;;;;;4993361;28;20081;-69
2021/05/27 03:00:07;;;;;;;7.30;2.75;;;10.10;99.90;;;;;;5010234;28;20046;-70
2021/05/27 03:02:34;;;;;;;4.15;2.75;;;10.20;99.90;;;;;;5007515;28;20089;-69
2021/05/27 03:05:01;;;;;;;6.95;2.90;;;10.30;99.90;;;;;;5009398;28;20074;-70
2021/05/27 03:07:28;;;;;;;4.93;2.83;;;10.40;99.90;;;;;;5009267;28;20045;-70
2021/05/27 03:09:54;;;;;;;6.38;2.67;;;10.40;99.90;;;;;;5010995;28;20069;-69
2021/05/27 03:12:21;;;;;;;5.00;2.70;;;10.50;99.90;;;;;;5008986;28;20123;-69
2021/05/27 03:14:48;;;;;;;6.28;2.80;;;10.40;99.90;;;;;;5010944;28;21916;-70
2021/05/27 03:17:15;;;;;;;4.72;2.80;;;10.40;99.90;;;;;;5004960;28;20133;-69
2021/05/27 03:19:42;;;;;;;4.88;3.00;;;10.40;99.90;;;;;;5010357;28;20492;-69
2021/05/27 03:22:08;;;;;;;5.55;2.60;;;10.40;99.90;;;;;;5006097;28;20137;-69
2021/05/27 03:24:35;;;;;;;4.93;2.90;;;10.60;99.90;;;;;;5011175;28;20421;-68
2021/05/27 03:27:02;;;;;;;3.85;2.80;;;10.60;99.90;;;;;;5010101;28;20088;-69
2021/05/27 03:29:29;;;;;;;3.78;2.78;;;10.60;99.90;;;;;;5011447;28;20092;-68
2021/05/27 03:31:56;;;;;;;7.00;3.08;;;10.60;99.90;;;;;;5007457;28;20076;-68
2021/05/27 03:34:23;;;;;;;3.17;2.63;;;10.60;99.90;;;;;;5009449;28;20488;-69
2021/05/27 03:36:50;;;;;;;8.45;2.95;;;10.60;99.90;;;;;;5009521;28;20057;-69
2021/05/27 03:39:16;;;;;;;8.40;2.83;;;10.50;99.90;;;;;;5010269;28;20527;-69
2021/05/27 03:41:43;;;;;;;9.38;3.30;;;10.40;99.90;;;;;;5010222;28;20133;-69
2021/05/27 03:44:10;;;;;;;5.07;3.00;;;10.40;99.90;;;;;;5011277;28;20563;-69
2021/05/27 03:46:41;;;;;;;5.13;3.17;;;10.40;99.90;;;;;;5005773;28;20180;-68
2021/05/27 03:49:08;;;;;;;6.03;3.33;;;10.40;99.90;;;;;;5010888;28;20073;-69
2021/05/27 03:51:35;;;;;;;8.88;4.03;;;10.30;99.90;;;;;;5009810;28;20070;-70
2021/05/27 03:54:04;;;;;;;6.95;3.22;;;10.50;99.90;;;;;;5009177;28;20050;-68
2021/05/27 03:56:31;;;;;;;7.30;3.55;;;10.60;99.90;;;;;;5009270;28;20112;-68
2021/05/27 04:01:43;;;;;;;6.18;3.35;;;10.50;99.90;;;;;;5008827;28;20164;-68
2021/05/27 04:07:10;;;;;;;12.02;3.65;;;10.70;99.90;;;;;;5008752;28;20456;-68
2021/05/27 04:09:41;;;;;;;5.53;3.50;;;10.80;99.90;;;;;;5007618;28;20128;-69
2021/05/27 04:17:41;;;;;;;3.95;3.05;;;10.60;99.90;;;;;;5010633;28;20073;-70
2021/05/27 04:20:08;;;;;;;8.13;3.42;;;10.70;99.90;;;;;;5009738;28;20096;-69
2021/05/27 04:22:36;;;;;;;6.40;3.60;;;10.70;99.90;;;;;;5007809;28;20220;-69
2021/05/27 04:25:03;;;;;;;5.63;3.35;;;10.70;99.90;;;;;;5008101;28;20093;-69
2021/05/27 04:27:30;;;;;;;9.45;3.70;;;10.50;99.90;;;;;;5010477;28;20083;-70
2021/05/27 04:30:12;;;;;;;4.70;3.47;;;10.60;99.90;;;;;;5010851;28;20045;-69
2021/05/27 04:35:33;;;;;;;7.18;3.45;;;10.70;99.90;;;;;;5009191;28;20053;-69
2021/05/27 04:38:06;;;;;;;5.22;3.47;;;10.70;99.90;;;;;;5005916;28;20534;-67
2021/05/27 04:40:35;;;;;;;5.72;3.67;;;10.80;99.90;;;;;;5010303;28;20540;-68
2021/05/27 04:43:02;;;;;;;6.93;4.07;;;10.90;99.90;;;;;;5007042;28;20082;-68
2021/05/27 04:45:29;;;;;;;6.03;3.13;;;10.90;99.90;;;;;;5004974;28;20405;-70
2021/05/27 04:47:57;;;;;;;6.32;3.67;;;11.00;99.90;;;;;;5008497;28;20153;-68
2021/05/27 04:50:25;;;;;;;6.00;3.22;;;10.60;99.90;;;;;;5003820;28;20129;-69
2021/05/27 04:52:52;;;;;;;6.13;3.50;;;10.80;99.90;;;;;;5007241;28;20069;-69
2021/05/27 04:55:20;;;;;;;9.43;3.90;;;10.90;99.90;;;;;;5007176;28;20050;-69
2021/05/27 04:57:47;;;;;;;6.10;3.90;;;10.90;99.90;;;;;;5008955;28;20496;-69
2021/05/27 05:00:17;;;;;;;5.95;3.75;;;11.00;99.90;;;;;;5007028;28;20046;-69
2021/05/27 05:02:49;;;;;;;6.63;3.78;;;11.20;99.90;;;;;;5008293;28;20045;-68
2021/05/27 05:05:16;;;;;;;5.10;3.60;;;11.20;99.90;;;;;;5006709;28;20112;-68
2021/05/27 05:07:43;;;;;;;7.03;3.20;;;10.90;99.90;;;;;;5004246;28;20129;-68
2021/05/27 05:10:11;;;;;;;6.15;3.20;;;11.10;99.90;;;;;;5007285;28;20081;-69
2021/05/27 05:12:51;;;;;;;7.47;3.50;;;10.80;99.90;;;;;;5008129;28;20092;-69
2021/05/27 05:15:27;;;;;;;3.33;2.70;;;11.00;99.90;;;;;;5007837;28;20062;-69
2021/05/27 05:17:55;;;;;;;9.35;3.50;;;11.10;99.90;;;;;;5007477;28;20054;-68
2021/05/27 05:20:24;;;;;;;6.45;3.28;;;11.00;99.90;;;;;;5005504;28;20451;-69
2021/05/27 05:22:52;;;;;;;6.28;3.10;;;10.90;99.90;;;;;;5007252;28;20146;-70
2021/05/27 05:25:20;;;;;;;8.15;3.20;;;10.90;99.90;;;;;;5008886;28;20460;-69
2021/05/27 05:27:47;;;;;;;9.90;2.83;;;10.90;99.90;;;;;;5008611;28;20121;-69
2021/05/27 05:30:15;;;;;;;4.82;3.17;;;10.80;99.90;;;;;;5007191;28;20049;-68
2021/05/27 05:32:43;;;;;;;6.85;3.63;;;11.10;99.90;;;;;;5008241;28;20046;-68
2021/05/27 05:35:13;;;;;;;6.05;3.47;;;11.10;99.90;;;;;;5006373;28;20548;-68
2021/05/27 05:37:41;;;;;;;11.20;3.67;;;11.10;99.90;;;;;;5005763;28;20053;-68
2021/05/27 05:40:11;;;;;;;4.70;3.28;;;11.30;99.90;;;;;;5007079;28;20050;-69
2021/05/27 05:42:41;;;;;;;9.20;3.10;;;11.20;99.90;;;;;;5006180;28;20107;-69
2021/05/27 05:45:11;;;;;;;8.68;3.20;;;11.10;99.90;;;;;;5006764;28;20137;-69
2021/05/27 05:47:38;;;;;;;7.17;3.17;;;11.10;99.90;;;;;;5005608;28;20453;-68
2021/05/27 05:50:08;;;;;;;6.97;3.08;;;11.30;99.90;;;;;;5008462;28;20096;-68
2021/05/27 05:52:35;;;;;;;6.03;3.10;;;11.30;99.90;;;;;;5004396;28;20181;-67
2021/05/27 05:55:04;;;;;;;9.00;3.85;;;11.20;99.90;;;;;;5025693;28;21905;-69
2021/05/27 05:57:31;;;;;;;7.85;4.90;;;11.30;99.90;;;;;;5009250;28;20215;-69
2021/05/27 05:59:58;;;;;;;7.30;4.80;;;11.30;99.90;;;;;;5005653;28;20050;-68
2021/05/27 06:02:25;;;;;;;8.65;5.10;;;11.10;99.90;;;;;;5011116;28;20053;-67
2021/05/27 06:04:52;;;;;;;11.32;5.55;;;11.40;99.90;;;;;;5011560;28;20500;-68
2021/05/27 06:07:20;;;;;;;9.75;4.88;;;11.40;99.90;;;;;;5010484;28;20042;-70
2021/05/27 06:09:47;;;;;;;12.43;6.70;;;11.50;99.90;;;;;;5011274;28;20054;-69
2021/05/27 06:12:13;;;;;;;14.30;7.40;;;11.60;99.90;;;;;;5012264;28;20728;-68
2021/05/27 06:14:40;;;;;;;14.40;8.00;;;11.70;99.90;;;;;;5000940;28;20046;-69
2021/05/27 06:17:07;;;;;;;10.18;7.55;;;11.70;99.90;;;;;;5011673;28;20085;-68
2021/05/27 06:19:34;;;;;;;7.43;6.10;;;12.00;99.90;;;;;;5011670;28;20047;-70
2021/05/27 06:22:01;;;;;;;9.38;5.95;;;12.40;98.80;;;;;;5007862;28;20050;-68
2021/05/27 06:24:28;;;;;;;8.45;4.63;;;12.50;98.00;;;;;;5010945;28;20125;-68
2021/05/27 06:26:55;;;;;;;12.07;4.70;;;12.20;97.60;;;;;;5011395;28;20050;-68
2021/05/27 06:29:22;;;;;;;11.23;5.70;;;12.20;97.70;;;;;;5009020;28;20049;-69
2021/05/27 06:31:49;;;;;;;9.40;4.43;;;12.10;98.10;;;;;;5011511;28;20140;-68
2021/05/27 06:34:16;;;;;;;7.60;4.53;;;12.00;97.80;;;;;;5010570;28;20127;-68
2021/05/27 06:36:43;;;;;;;9.98;3.60;;;12.10;98.00;;;;;;5009636;28;20489;-69
2021/05/27 06:39:10;;;;;;;4.72;3.13;;;12.00;96.70;;;;;;5010718;28;20404;-67
2021/05/27 06:41:36;;;;;;;8.18;3.10;;;12.00;96.70;;;;;;5010242;28;20515;-68
2021/05/27 06:44:03;;;;;;;6.63;3.08;;;12.10;96.30;;;;;;5009216;28;20054;-68
2021/05/27 06:46:30;;;;;;;6.40;2.72;;;12.10;96.00;;;;;;5008775;28;20069;-68
2021/05/27 06:48:57;;;;;;;5.80;2.45;;;12.20;96.20;;;;;;5009906;28;20096;-68
2021/05/27 06:51:24;;;;;;;3.75;2.17;;;12.30;95.30;;;;;;5006184;28;20140;-68
2021/05/27 06:53:52;;;;;;;7.50;2.20;;;12.30;95.20;;;;;;5007729;28;20065;-69
2021/05/27 06:56:19;;;;;;;3.67;2.20;;;12.40;94.50;;;;;;5009495;28;20132;-69
2021/05/27 06:58:46;;;;;;;12.85;5.03;;;12.50;94.50;;;;;;5012090;28;20049;-70
2021/05/27 07:01:12;;;;;;;6.50;3.45;;;12.50;94.40;;;;;;5009576;28;20100;-68
2021/05/27 07:03:39;;;;;;;3.00;2.40;;;12.60;94.10;;;;;;5010748;28;20133;-68
2021/05/27 07:06:06;;;;;;;3.00;2.05;;;12.60;93.70;;;;;;5007067;28;20077;-68
2021/05/27 07:08:33;;;;;;;3.15;2.20;;;12.70;93.60;;;;;;5006980;28;20088;-69
2021/05/27 07:11:00;;;;;;;3.35;2.22;;;12.40;92.60;;;;;;5010699;28;20046;-68
2021/05/27 07:13:27;;;;;;;5.50;2.65;;;12.40;93.40;;;;;;5010285;28;20128;-69
2021/05/27 07:15:54;;;;;;;5.55;2.30;;;12.40;93.60;;;;;;5011860;28;20569;-68
2021/05/27 07:18:22;;;;;;;6.70;2.10;;;12.50;93.70;;;;;;5018795;28;20064;-69
2021/05/27 07:20:49;;;;;;;5.60;2.22;;;12.50;93.80;;;;;;5005608;28;20087;-69
2021/05/27 07:23:17;;;;;;;4.78;2.00;;;12.50;93.60;;;;;;5008848;28;20110;-68
2021/05/27 07:25:44;;;;;;;4.57;2.38;;;12.40;93.70;;;;;;5024936;28;20402;-68
2021/05/27 07:28:11;;;;;;;4.05;2.10;;;12.40;93.80;;;;;;5008234;28;20538;-68
2021/05/27 07:30:38;;;;;;;6.43;2.45;;;12.40;93.70;;;;;;4999872;28;20077;-69
2021/05/27 07:33:05;;;;;;;4.45;2.17;;;12.30;93.50;;;;;;5010358;28;20089;-69
2021/05/27 07:35:33;;;;;;;5.15;2.20;;;12.40;93.60;;;;;;5007850;28;20056;-69
2021/05/27 07:38:00;;;;;;;3.75;2.40;;;12.40;93.50;;;;;;5006319;28;20061;-68
2021/05/27 07:40:28;;;;;;;6.60;2.30;;;12.40;93.80;;;;;;5008470;28;20077;-68
2021/05/27 07:42:56;;;;;;;3.67;2.13;;;12.50;93.60;;;;;;5009571;28;20057;-69
2021/05/27 07:45:23;;;;;;;6.75;2.15;;;12.40;93.40;;;;;;5008501;28;20062;-69
2021/05/27 07:47:50;;;;;;;5.88;2.45;;;12.40;93.10;;;;;;5007380;28;20162;-67
2021/05/27 07:50:20;;;;;;;4.28;2.20;;;12.40;93.40;;;;;;5010891;28;20084;-66
2021/05/27 07:52:49;;;;;;;6.25;1.83;;;12.50;93.40;;;;;;5010360;28;20474;-68
2021/05/27 07:55:16;;;;;;;9.50;2.50;;;12.50;93.10;;;;;;5009480;28;20468;-68
2021/05/27 07:57:43;;;;;;;4.38;2.13;;;12.50;93.20;;;;;;5010227;28;20144;-68
2021/05/27 08:00:11;;;;;;;6.13;2.42;;;12.50;93.30;;;;;;4997840;28;20053;-69
2021/05/27 08:02:38;;;;;;;4.85;2.17;;;12.50;93.30;;;;;;5009623;28;20042;-68
2021/05/27 08:05:05;;;;;;;9.27;2.28;;;12.60;93.50;;;;;;5010081;28;20085;-69
2021/05/27 08:07:32;;;;;;;5.25;2.50;;;12.60;93.10;;;;;;5008736;28;20118;-69
2021/05/27 08:10:03;;;;;;;6.45;2.22;;;12.60;91.60;;;;;;5008818;28;20166;-69
2021/05/27 08:12:30;;;;;;;5.57;2.30;;;12.70;91.80;;;;;;5022327;28;20481;-68
2021/05/27 08:14:58;;;;;;;4.25;2.10;;;12.70;91.30;;;;;;5003113;28;20081;-69
2021/05/27 08:17:25;;;;;;;4.57;2.30;;;12.70;90.50;;;;;;5008125;28;20085;-68
2021/05/27 08:19:52;;;;;;;4.30;2.28;;;12.80;90.50;;;;;;5009207;28;20046;-69
2021/05/27 08:22:20;;;;;;;5.47;2.50;;;12.70;90.30;;;;;;5005540;28;20076;-74
2021/05/27 08:24:47;;;;;;;4.70;3.10;;;12.80;90.50;;;;;;5009599;28;20125;-74
2021/05/27 08:27:14;;;;;;;6.50;2.40;;;12.80;90.30;;;;;;5009307;28;20041;-75
2021/05/27 08:29:41;;;;;;;10.10;2.53;;;12.70;90.00;;;;;;5006984;28;20134;-73
2021/05/27 08:32:08;;;;;;;3.95;2.60;;;12.70;90.10;;;;;;5007898;28;20054;-73
2021/05/27 08:34:35;;;;;;;8.32;2.78;;;12.70;90.30;;;;;;5006841;28;20144;-73
2021/05/27 08:37:02;;;;;;;7.75;3.15;;;12.70;90.50;;;;;;5006133;28;20483;-73
2021/05/27 08:39:30;;;;;;;6.43;3.00;;;12.70;90.80;;;;;;5007952;28;20042;-72
2021/05/27 08:41:57;;;;;;;5.20;2.70;;;12.70;90.40;;;;;;5008956;28;20042;-72
2021/05/27 08:44:24;;;;;;;8.73;2.70;;;12.70;90.60;;;;;;5011393;28;20452;-74
2021/05/27 08:46:51;;;;;;;7.07;2.55;;;12.70;90.60;;;;;;5014474;28;20124;-73
2021/05/27 08:49:18;;;;;;;4.20;2.45;;;12.70;90.40;;;;;;5006884;28;20101;-72
2021/05/27 08:51:46;;;;;;;7.07;2.38;;;12.70;90.10;;;;;;5004945;28;20058;-72
2021/05/27 08:54:13;;;;;;;6.15;2.47;;;12.70;90.00;;;;;;5008076;28;20065;-73
2021/05/27 08:56:40;;;;;;;3.03;2.40;;;12.80;90.10;;;;;;5009769;28;20073;-73
2021/05/27 08:59:07;;;;;;;5.07;2.58;;;12.90;90.20;;;;;;5005967;28;20100;-73
2021/05/27 09:01:33;;;;;;;4.43;2.50;;;12.90;90.00;;;;;;5004869;28;20088;-72
2021/05/27 09:04:02;;;;;;;6.40;2.60;;;13.00;89.90;;;;;;5007768;28;20054;-73
2021/05/27 09:06:29;;;;;;;6.13;2.70;;;13.10;89.00;;;;;;5010229;28;20179;-73
2021/05/27 09:09:05;;;;;;;8.85;2.85;;;13.20;88.60;;;;;;5006057;28;20077;-71
2021/05/27 09:11:37;;;;;;;4.43;3.03;;;13.30;87.80;;;;;;5002712;28;20449;-72
2021/05/27 09:14:06;;;;;;;5.15;2.63;;;13.30;87.60;;;;;;5005322;28;20085;-73
2021/05/27 09:16:34;;;;;;;4.28;2.67;;;13.20;86.70;;;;;;5005794;28;20120;-71
2021/05/27 09:19:17;;;;;;;5.72;2.75;;;13.20;87.00;;;;;;5008722;28;20054;-75
2021/05/27 09:21:45;;;;;;;4.25;2.40;;;13.30;87.00;;;;;;5003223;28;20171;-75
2021/05/27 09:24:12;;;;;;;6.35;3.00;;;13.30;87.30;;;;;;5009169;28;20217;-76
2021/05/27 09:26:56;;;;;;;3.25;2.40;;;13.50;86.90;;;;;;5007635;28;20428;-73
2021/05/27 09:29:23;;;;;;;4.57;2.60;;;13.70;85.60;;;;;;5022491;28;20049;-71
2021/05/27 09:31:59;;;;;;;4.68;2.38;;;13.90;85.10;;;;;;5000068;28;20070;-71
2021/05/27 09:34:50;;;;;;;4.00;2.50;;;14.10;83.60;;;;;;5006875;28;20058;-71
2021/05/27 09:37:22;;;;;;;6.30;3.22;;;13.90;83.10;;;;;;5006119;28;20077;-71
2021/05/27 09:39:51;;;;;;;7.50;2.65;;;13.80;82.50;;;;;;5008939;28;20073;-71
2021/05/27 09:42:18;;;;;;;4.70;2.45;;;13.80;82.90;;;;;;5009631;28;20118;-71
2021/05/27 09:44:45;;;;;;;6.15;2.92;;;13.80;83.00;;;;;;5008914;28;20408;-72
2021/05/27 09:47:12;;;;;;;5.85;2.92;;;13.90;82.90;;;;;;5008320;28;20072;-73
2021/05/27 09:50:03;;;;;;;7.65;3.63;;;13.80;82.90;;;;;;5008927;28;20080;-72
2021/05/27 09:52:48;;;;;;;4.50;3.38;;;13.80;82.90;;;;;;5020584;28;20080;-70
2021/05/27 09:55:19;;;;;;;5.80;3.97;;;13.80;82.20;;;;;;5007088;28;20082;-70
2021/05/27 09:57:48;;;;;;;9.32;3.55;;;13.80;82.40;;;;;;4997711;28;20137;-69
2021/05/27 10:00:28;;;;;;;5.97;3.00;;;13.90;82.60;;;;;;5003128;28;20172;-70
2021/05/27 10:02:58;;;;;;;3.92;2.50;;;14.00;82.10;;;;;;5002547;28;20046;-71
2021/05/27 10:05:25;;;;;;;7.25;2.67;;;14.10;79.70;;;;;;5000553;28;20120;-71
2021/05/27 10:07:53;;;;;;;5.75;2.28;;;14.10;79.30;;;;;;5001155;28;20050;-71
2021/05/27 10:10:41;;;;;;;3.72;2.70;;;14.20;78.60;;;;;;5002438;28;20428;-72
2021/05/27 10:13:13;;;;;;;4.45;3.05;;;14.30;78.70;;;;;;5002664;28;20141;-71
2021/05/27 10:15:43;;;;;;;4.28;2.47;;;14.40;78.30;;;;;;5001374;28;20464;-71
2021/05/27 10:18:18;;;;;;;5.15;2.70;;;14.60;76.80;;;;;;5001046;28;20133;-70
2021/05/27 10:20:45;;;;;;;4.93;3.20;;;14.70;76.20;;;;;;5001620;28;20053;-71
2021/05/27 10:23:13;;;;;;;4.82;2.67;;;15.00;74.90;;;;;;5002677;28;20553;-71
2021/05/27 10:25:42;;;;;;;3.90;2.63;;;15.20;74.30;;;;;;5001781;28;20164;-70
2021/05/27 10:28:11;;;;;;;4.72;2.60;;;15.20;73.00;;;;;;5001637;28;20042;-71
2021/05/27 10:30:42;;;;;;;5.20;2.42;;;15.30;72.00;;;;;;5000680;28;20069;-69
2021/05/27 10:33:16;;;;;;;5.22;2.85;;;15.50;72.00;;;;;;5002085;28;20412;-70
2021/05/27 10:36:01;;;;;;;6.63;2.92;;;15.60;72.40;;;;;;5002064;28;20050;-70
2021/05/27 10:38:43;;;;;;;3.53;2.40;;;15.60;72.30;;;;;;4998935;28;20054;-71
2021/05/27 10:41:42;;;;;;;8.00;3.40;;;15.50;70.80;;;;;;5001683;28;20137;-70
2021/05/27 10:44:14;;;;;;;4.57;2.20;;;15.30;69.80;;;;;;5004893;28;20099;-71
2021/05/27 10:46:44;;;;;;;9.13;2.13;;;15.10;70.50;;;;;;5002689;28;20100;-72
2021/05/27 10:49:11;;;;;;;3.40;2.00;;;15.20;69.60;;;;;;5004507;28;20164;-70
2021/05/27 10:51:46;;;;;;;3.47;1.92;;;15.10;69.70;;;;;;5004780;28;20496;-70
2021/05/27 10:54:15;;;;;;;3.80;2.45;;;15.10;70.70;;;;;;5004443;28;20082;-70
2021/05/27 10:56:45;;;;;;;2.33;1.85;;;15.10;70.80;;;;;;5005413;28;20488;-71
2021/05/27 10:59:14;;;;;;;2.22;2.00;;;15.00;69.80;;;;;;5005606;28;20060;-71
2021/05/27 11:01:42;;;;;;;2.72;1.95;;;14.90;70.00;;;;;;5002629;28;20165;-72
2021/05/27 11:04:21;;;;;;;3.13;2.20;;;15.10;69.80;;;;;;5004889;28;21283;-70
2021/05/27 11:06:49;;;;;;;2.70;2.17;;;15.10;69.40;;;;;;5004662;28;20137;-70
2021/05/27 11:09:18;;;;;;;4.78;3.25;;;15.40;68.60;;;;;;5004092;28;20068;-71
2021/05/27 11:12:10;;;;;;;4.75;2.38;;;15.50;68.40;;;;;;5005479;28;20058;-71
2021/05/27 11:15:07;;;;;;;4.05;2.55;;;15.40;67.30;;;;;;5004613;28;20050;-71
2021/05/27 11:17:34;;;;;;;3.33;2.20;;;15.50;66.50;;;;;;5003289;28;20077;-70
2021/05/27 11:20:06;;;;;;;3.65;1.85;;;15.60;65.10;;;;;;5023858;28;20061;-71
2021/05/27 11:22:54;;;;;;;4.00;1.90;;;15.60;65.40;;;;;;5003080;28;20501;-70
2021/05/27 11:25:30;;;;;;;5.43;1.60;;;15.70;65.80;;;;;;5004439;28;20139;-71
2021/05/27 11:28:02;;;;;;;2.92;1.60;;;15.90;63.70;;;;;;5005465;28;20050;-71
2021/05/27 11:30:41;;;;;;;8.63;2.42;;;15.90;63.00;;;;;;5004245;28;20065;-71
2021/05/27 11:33:28;;;;;;;3.85;2.00;;;16.00;62.50;;;;;;5003973;28;20056;-70
2021/05/27 11:35:57;;;;;;;5.93;1.50;;;16.10;63.40;;;;;;5004525;28;20050;-71
2021/05/27 11:38:28;;;;;;;2.05;1.35;;;16.10;62.00;;;;;;5001586;28;20407;-71
2021/05/27 11:41:17;;;;;;;1.95;1.33;;;16.10;61.20;;;;;;5004578;28;20509;-71
2021/05/27 11:43:47;;;;;;;2.25;1.63;;;16.10;60.10;;;;;;5003891;28;20501;-71
2021/05/27 11:46:16;;;;;;;2.55;1.75;;;16.10;60.90;;;;;;5002600;28;20077;-71
2021/05/27 11:49:01;;;;;;;3.22;1.70;;;16.30;61.00;;;;;;5003051;28;20137;-70
2021/05/27 11:51:37;;;;;;;3.53;1.42;;;16.30;60.40;;;;;;5003404;28;20490;-71
2021/05/27 11:54:10;;;;;;;2.65;1.30;;;16.20;58.90;;;;;;5021689;28;20519;-70
2021/05/27 11:56:41;;;;;;;2.45;1.52;;;16.20;59.30;;;;;;5004309;28;20167;-70
2021/05/27 11:59:19;;;;;;;2.28;1.23;;;16.20;59.30;;;;;;5003865;28;20088;-71
2021/05/27 12:01:52;;;;;;;4.70;1.75;;;16.40;58.80;;;;;;5002487;28;20135;-71
2021/05/27 12:04:25;;;;;;;2.25;1.83;;;16.50;58.90;;;;;;5003577;28;20053;-71
2021/05/27 12:07:05;;;;;;;2.92;1.40;;;16.50;58.10;;;;;;5000057;28;20077;-71
2021/05/27 12:09:39;;;;;;;3.63;1.67;;;16.50;58.10;;;;;;5001207;28;20132;-70
2021/05/27 12:12:21;;;;;;;2.88;1.52;;;16.60;57.80;;;;;;5003690;28;20143;-69
2021/05/27 12:14:53;;;;;;;2.75;1.20;;;16.70;57.80;;;;;;5001506;28;20143;-71
2021/05/27 12:17:25;;;;;;;3.70;1.90;;;16.40;57.70;;;;;;5002395;28;20061;-76
2021/05/27 12:19:55;;;;;;;6.00;1.83;;;16.30;58.60;;;;;;5001625;28;20105;-72
2021/05/27 12:22:22;;;;;;;5.30;1.50;;;16.20;63.40;;;;;;5002139;28;20628;-73
2021/05/27 12:25:05;;;;;;;5.07;1.75;;;16.10;62.30;;;;;;5000232;28;20065;-73
2021/05/27 12:27:43;;;;;;;2.75;1.80;;;16.30;62.00;;;;;;5002864;28;20162;-72
2021/05/27 12:30:12;;;;;;;2.55;1.20;;;16.40;61.70;;;;;;4999365;28;20228;-73
2021/05/27 12:32:45;;;;;;;2.40;1.33;;;16.30;59.10;;;;;;5003515;28;20176;-75
2021/05/27 12:35:18;;;;;;;2.15;1.50;;;16.30;59.00;;;;;;5002555;28;20054;-80
2021/05/27 12:37:48;;;;;;;4.57;1.95;;;16.20;58.70;;;;;;5004680;28;20041;-77
2021/05/27 12:40:24;;;;;;;2.25;1.70;;;16.20;59.30;;;;;;5002265;28;20132;-77
2021/05/27 12:42:53;;;;;;;3.67;1.88;;;16.10;59.50;;;;;;5002478;28;20108;-77
2021/05/27 12:45:28;;;;;;;5.50;1.58;;;15.90;66.90;;;;;;5027956;28;20161;-76
2021/05/27 12:48:05;;;;;;;4.22;2.10;;;15.30;72.90;;;;;;5001400;28;20137;-77
2021/05/27 12:50:35;;;;;;;10.85;2.80;;;14.60;86.10;;;;;;5003398;28;21397;-77
2021/05/27 12:53:06;;;;;;;9.17;2.40;;;14.00;98.30;;;;;;5003366;28;20057;-78
2021/05/27 12:55:34;;;;;;;5.35;2.17;;;13.70;99.90;;;;;;5002138;28;20308;-78
2021/05/27 12:58:06;;;;;;;5.57;2.60;;;13.60;99.90;;;;;;5003671;28;20061;-77
2021/05/27 13:00:49;;;;;;;6.40;2.97;;;13.80;99.90;;;;;;5023833;28;20553;-78
2021/05/27 13:03:17;;;;;;;5.45;2.38;;;13.90;99.90;;;;;;5001372;28;20145;-78
2021/05/27 13:05:44;;;;;;;5.72;2.88;;;14.10;99.90;;;;;;5002339;28;20050;-79
2021/05/27 13:08:11;;;;;;;5.85;3.15;;;14.20;99.90;;;;;;5002580;28;20085;-77
2021/05/27 13:10:40;;;;;;;4.38;3.00;;;14.50;99.90;;;;;;5002471;28;20058;-76
2021/05/27 13:13:08;;;;;;;5.57;3.15;;;14.60;99.90;;;;;;5003492;28;20045;-75